Florencia — IBPD — position and weather

sailwx.info

Track history (hours):
 
Tides and Currents Weather Stations Pressure Air Temp Water Temp Dewpoint Dewpoint Depression Visibility Wind Speed Wind Dir Waves Ship Positions

Florencia

Last reported at 2015-Jan-27 17:17 UTC. Time now 2015-Jan-27 18:53 UTC.
Position N 41°21' E 002°10'.

Length 186 m; draft 6.2 m.

Type: Passenger vessel. MMSI: 247105900.

Date/timePositionNaut miles runAvg speedWind from/ knotsBaromVisibWave heightAir tempDewpointWater temp
2015-Jan-27 17:17N 41°21' E 002°10'5117.1
2015-Jan-27 14:20N 41°45' E 003°10'1618.7
2015-Jan-27 13:28N 41°59' E 003°20'1920.7
2015-Jan-27 12:34N 42°17' E 003°27'2020.5
2015-Jan-27 11:34N 42°37' E 003°36'2218.8
2015-Jan-27 10:25N 42°45' E 004°03'2219.9
2015-Jan-27 09:19N 42°50' E 004°32'2419.8
2015-Jan-27 08:07N 42°53' E 005°04'5620.0
2015-Jan-27 05:17N 42°57' E 006°21'1520.9
2015-Jan-27 04:33N 43°04' E 006°40'2121.2
2015-Jan-27 03:33N 43°16' E 007°03'2221.7
2015-Jan-27 02:33N 43°29' E 007°27'6220.7
2015-Jan-26 23:33N 44°12' E 008°29'7 7.2
2015-Jan-26 22:33N 44°19' E 008°30'0 0.0
2015-Jan-26 21:33N 44°19' E 008°30'0 0.0
2015-Jan-26 20:33N 44°19' E 008°30'0 0.0
2015-Jan-26 19:33N 44°19' E 008°30'0 0.0
2015-Jan-26 18:32N 44°19' E 008°30'0 0.0
2015-Jan-26 17:33N 44°19' E 008°30'0 0.0
2015-Jan-26 16:33N 44°19' E 008°30'0 0.0
2015-Jan-26 15:33N 44°19' E 008°30'0 0.2
2015-Jan-26 14:33N 44°19' E 008°30'0 0.0
2015-Jan-26 13:33N 44°19' E 008°30'0 0.0
2015-Jan-26 12:33N 44°19' E 008°30'0 0.0
2015-Jan-26 11:33N 44°19' E 008°30'0 0.0
2015-Jan-26 10:33N 44°19' E 008°30'0 0.0
2015-Jan-26 09:33N 44°19' E 008°30'0 0.0
2015-Jan-26 08:33N 44°19' E 008°30'0 0.0
2015-Jan-26 07:33N 44°19' E 008°30'0 0.0
2015-Jan-26 06:33N 44°19' E 008°30'0 0.0
2015-Jan-26 05:33N 44°19' E 008°30'0 0.0
2015-Jan-26 04:33N 44°19' E 008°30'0 0.0
2015-Jan-26 03:33N 44°19' E 008°30'0 0.0
2015-Jan-26 02:33N 44°19' E 008°30'0 0.0
2015-Jan-26 01:33N 44°19' E 008°30'0 0.0
2015-Jan-26 00:33N 44°19' E 008°30'0 0.0
2015-Jan-25 23:33N 44°19' E 008°30'0 0.2
2015-Jan-25 22:33N 44°19' E 008°30'0 0.0
2015-Jan-25 21:33N 44°19' E 008°30'0 0.0
2015-Jan-25 20:33N 44°19' E 008°30'1 1.3
2015-Jan-25 19:33N 44°18' E 008°32'1918.8
2015-Jan-25 18:33N 44°01' E 008°21'4019.7
2015-Jan-25 16:30N 43°35' E 007°38'1919.9
2015-Jan-25 15:33N 43°24' E 007°17'2120.5
2015-Jan-25 14:34N 43°11' E 006°55'2019.9
2015-Jan-25 13:34N 42°60' E 006°33'9719.1
2015-Jan-25 08:29N 42°51' E 004°21'132 9.4
2015-Jan-24 18:29N 41°22' E 002°11'9 8.4
2015-Jan-24 17:28N 41°22' E 002°22'1818.4
2015-Jan-24 16:30N 41°32' E 002°42'1919.7
2015-Jan-24 15:32N 41°42' E 003°04'1818.7
2015-Jan-24 14:33N 41°56' E 003°19'2820.1
2015-Jan-24 13:10N 42°24' E 003°25'1819.7
2015-Jan-24 12:16N 42°41' E 003°27'2117.7
2015-Jan-24 11:05N 42°47' E 003°55'1018.6
2015-Jan-24 10:33N 42°49' E 004°08'2118.8
2015-Jan-24 09:25N 42°50' E 004°37'2318.8
2015-Jan-24 08:11N 42°53' E 005°08'5319.6
2015-Jan-24 05:28N 42°56' E 006°21'1920.5
2015-Jan-24 04:34N 43°04' E 006°44'2120.7
2015-Jan-24 03:34N 43°17' E 007°07'2120.6
2015-Jan-24 02:33N 43°30' E 007°29'4321.0
2015-Jan-24 00:31N 43°55' E 008°16'2020.7
2015-Jan-23 23:33N 44°13' E 008°30'6 6.0
2015-Jan-23 22:33N 44°19' E 008°30'0 0.0
2015-Jan-23 21:33N 44°19' E 008°30'0 0.0
2015-Jan-23 20:33N 44°19' E 008°30'0 0.0
2015-Jan-23 19:33N 44°19' E 008°30'0 0.0
2015-Jan-23 18:33N 44°19' E 008°30'6 5.6
2015-Jan-23 17:34N 44°13' E 008°31'2019.9
2015-Jan-23 16:33N 43°56' E 008°16'2519.3
2015-Jan-23 15:17N 43°41' E 007°49'1419.9
2015-Jan-23 14:34N 43°33' E 007°33'2020.2
2015-Jan-23 13:33N 43°20' E 007°11'2019.7
2015-Jan-23 12:34N 43°08' E 006°49'2019.6
2015-Jan-23 11:34N 42°57' E 006°28'5819.3
2015-Jan-23 08:34N 42°44' E 005°11'2019.4
2015-Jan-23 07:33N 42°41' E 004°44'130 8.4
2015-Jan-22 16:10N 41°22' E 002°27'1518.3
2015-Jan-22 15:23N 41°29' E 002°44'1518.2
2015-Jan-22 14:33N 41°36' E 003°01'2018.7
2015-Jan-22 13:29N 41°50' E 003°21'1819.3
2015-Jan-22 12:33N 42°03' E 003°38'1919.2
2015-Jan-22 11:33N 42°13' E 003°59'2219.7
2015-Jan-22 10:26N 42°21' E 004°28'1719.1
2015-Jan-22 09:31N 42°27' E 004°50'1919.2
2015-Jan-22 08:31N 42°33' E 005°15'5919.9
2015-Jan-22 05:33N 42°55' E 006°29'2019.8
2015-Jan-22 04:33N 43°06' E 006°51'1919.4
2015-Jan-22 03:33N 43°18' E 007°12'1919.2
2015-Jan-22 02:33N 43°30' E 007°33'4619.5
2015-Jan-22 00:11N 44°01' E 008°20'1319.9
2015-Jan-21 23:33N 44°11' E 008°30'810.5
2015-Jan-21 22:50N 44°19' E 008°30'0 0.0
2015-Jan-21 22:46N 44°19' E 008°30'0 0.0
2015-Jan-21 22:33N 44°19' E 008°30'0 0.0
2015-Jan-21 21:33N 44°19' E 008°30'0 0.0
2015-Jan-21 20:33N 44°19' E 008°30'0 0.0
2015-Jan-21 19:29N 44°19' E 008°30'0 0.0
2015-Jan-21 18:33N 44°19' E 008°30'1 1.0
2015-Jan-21 17:33N 44°18' E 008°31'2719.3
2015-Jan-21 16:08N 43°54' E 008°14'3319.9
2015-Jan-21 14:29N 43°33' E 007°38'1920.0
2015-Jan-21 13:33N 43°22' E 007°18'2020.0
2015-Jan-21 12:33N 43°10' E 006°56'2019.6
2015-Jan-21 11:33N 42°58' E 006°34'6319.9
2015-Jan-21 08:22N 42°38' E 005°12'1920.5
2015-Jan-21 07:28N 42°34' E 004°48'2219.4
2015-Jan-21 06:18N 42°30' E 004°18'4925.2
2015-Jan-21 04:22N 41°56' E 003°31'70 6.3
2015-Jan-20 17:10N 41°19' E 002°10'6 9.1
2015-Jan-20 16:33N 41°18' E 002°17'1717.0
2015-Jan-20 15:33N 41°26' E 002°37'2119.0
2015-Jan-20 14:25N 41°37' E 003°02'1618.1
2015-Jan-20 13:31N 41°47' E 003°19'2019.9
2015-Jan-20 12:30N 42°01' E 003°38'1818.4
2015-Jan-20 11:32N 42°11' E 003°59'2419.4
2015-Jan-20 10:18N 42°21' E 004°28'1419.0
2015-Jan-20 09:33N 42°26' E 004°46'7819.4
2015-Jan-20 05:33N 42°53' E 006°25'2019.8
2015-Jan-20 04:34N 43°03' E 006°49'2020.1
2015-Jan-20 03:33N 43°15' E 007°10'2019.9
2015-Jan-20 02:33N 43°28' E 007°31'4719.7
2015-Jan-20 00:11N 43°59' E 008°20'1220.1
2015-Jan-19 23:33N 44°10' E 008°29'9 8.9
2015-Jan-19 22:33N 44°19' E 008°30'0 0.0
2015-Jan-19 21:33N 44°19' E 008°30'0 0.0
2015-Jan-19 20:33N 44°19' E 008°30'0 0.0
2015-Jan-19 19:33N 44°19' E 008°30'0 0.0
2015-Jan-19 18:33N 44°19' E 008°30'0 0.0
2015-Jan-19 17:33N 44°19' E 008°30'0 0.0
2015-Jan-19 16:33N 44°19' E 008°30'0 0.0
2015-Jan-19 15:33N 44°19' E 008°30'0 0.0
2015-Jan-19 14:33N 44°19' E 008°30'0 0.2
2015-Jan-19 13:33N 44°19' E 008°30'0 0.0
2015-Jan-19 12:33N 44°19' E 008°30'0 0.0
2015-Jan-19 11:33N 44°19' E 008°30'0 0.0
2015-Jan-19 10:33N 44°19' E 008°30'0 0.0
2015-Jan-19 09:33N 44°19' E 008°30'0 0.0
2015-Jan-19 08:33N 44°19' E 008°30'0 0.0
2015-Jan-19 07:33N 44°19' E 008°30'0 0.0
2015-Jan-19 06:33N 44°19' E 008°30'0 0.0
2015-Jan-19 05:33N 44°19' E 008°30'0 0.0
2015-Jan-19 04:33N 44°19' E 008°30'0 0.0
2015-Jan-19 03:33N 44°19' E 008°30'0 0.0
2015-Jan-19 02:33N 44°19' E 008°30'0 0.0
2015-Jan-19 01:33N 44°19' E 008°30'0 0.0
2015-Jan-19 00:33N 44°19' E 008°30'0 0.0
2015-Jan-18 23:33N 44°19' E 008°30'0 0.0
2015-Jan-18 22:33N 44°19' E 008°30'0 0.0
2015-Jan-18 21:33N 44°19' E 008°30'0 0.2
2015-Jan-18 20:33N 44°19' E 008°30'0 0.0
2015-Jan-18 19:33N 44°19' E 008°30'0 0.0
2015-Jan-18 18:33N 44°19' E 008°30'0 0.0
2015-Jan-18 17:33N 44°19' E 008°30'1512.5
2015-Jan-18 16:20N 44°04' E 008°25'5319.1
2015-Jan-18 13:33N 43°27' E 007°31'2020.0
2015-Jan-18 12:33N 43°15' E 007°10'2019.6
2015-Jan-18 11:34N 43°03' E 006°48'22914.1
2015-Jan-17 19:19N 41°22' E 002°11'0 0.1
2015-Jan-17 18:21N 41°22' E 002°11'5 5.8
2015-Jan-17 17:33N 41°17' E 002°12'  
Track history (hours):
 
Tides and Currents Weather Stations Pressure Air Temp Water Temp Dewpoint Dewpoint Depression Visibility Wind Speed Wind Dir Waves Ship Positions

Florencia

Last reported at 2015-Jan-27 17:17 UTC. Time now 2015-Jan-27 18:53 UTC.
Position N 41°21' E 002°10'.

Length 186 m; draft 6.2 m.

Type: Passenger vessel. MMSI: 247105900.

Date/timePositionNaut miles runAvg speedWind from/ knotsBaromVisibWave heightAir tempDewpointWater temp
2015-Jan-27 17:17N 41°21' E 002°10'5117.1
2015-Jan-27 14:20N 41°45' E 003°10'1618.7
2015-Jan-27 13:28N 41°59' E 003°20'1920.7
2015-Jan-27 12:34N 42°17' E 003°27'2020.5
2015-Jan-27 11:34N 42°37' E 003°36'2218.8
2015-Jan-27 10:25N 42°45' E 004°03'2219.9
2015-Jan-27 09:19N 42°50' E 004°32'2419.8
2015-Jan-27 08:07N 42°53' E 005°04'5620.0
2015-Jan-27 05:17N 42°57' E 006°21'1520.9
2015-Jan-27 04:33N 43°04' E 006°40'2121.2
2015-Jan-27 03:33N 43°16' E 007°03'2221.7
2015-Jan-27 02:33N 43°29' E 007°27'6220.7
2015-Jan-26 23:33N 44°12' E 008°29'7 7.2
2015-Jan-26 22:33N 44°19' E 008°30'0 0.0
2015-Jan-26 21:33N 44°19' E 008°30'0 0.0
2015-Jan-26 20:33N 44°19' E 008°30'0 0.0
2015-Jan-26 19:33N 44°19' E 008°30'0 0.0
2015-Jan-26 18:32N 44°19' E 008°30'0 0.0
2015-Jan-26 17:33N 44°19' E 008°30'0 0.0
2015-Jan-26 16:33N 44°19' E 008°30'0 0.0
2015-Jan-26 15:33N 44°19' E 008°30'0 0.2
2015-Jan-26 14:33N 44°19' E 008°30'0 0.0
2015-Jan-26 13:33N 44°19' E 008°30'0 0.0
2015-Jan-26 12:33N 44°19' E 008°30'0 0.0
2015-Jan-26 11:33N 44°19' E 008°30'0 0.0
2015-Jan-26 10:33N 44°19' E 008°30'0 0.0
2015-Jan-26 09:33N 44°19' E 008°30'0 0.0
2015-Jan-26 08:33N 44°19' E 008°30'0 0.0
2015-Jan-26 07:33N 44°19' E 008°30'0 0.0
2015-Jan-26 06:33N 44°19' E 008°30'0 0.0
2015-Jan-26 05:33N 44°19' E 008°30'0 0.0
2015-Jan-26 04:33N 44°19' E 008°30'0 0.0
2015-Jan-26 03:33N 44°19' E 008°30'0 0.0
2015-Jan-26 02:33N 44°19' E 008°30'0 0.0
2015-Jan-26 01:33N 44°19' E 008°30'0 0.0
2015-Jan-26 00:33N 44°19' E 008°30'0 0.0
2015-Jan-25 23:33N 44°19' E 008°30'0 0.2
2015-Jan-25 22:33N 44°19' E 008°30'0 0.0
2015-Jan-25 21:33N 44°19' E 008°30'0 0.0
2015-Jan-25 20:33N 44°19' E 008°30'1 1.3
2015-Jan-25 19:33N 44°18' E 008°32'1918.8
2015-Jan-25 18:33N 44°01' E 008°21'4019.7
2015-Jan-25 16:30N 43°35' E 007°38'1919.9
2015-Jan-25 15:33N 43°24' E 007°17'2120.5
2015-Jan-25 14:34N 43°11' E 006°55'2019.9
2015-Jan-25 13:34N 42°60' E 006°33'9719.1
2015-Jan-25 08:29N 42°51' E 004°21'132 9.4
2015-Jan-24 18:29N 41°22' E 002°11'9 8.4
2015-Jan-24 17:28N 41°22' E 002°22'1818.4
2015-Jan-24 16:30N 41°32' E 002°42'1919.7
2015-Jan-24 15:32N 41°42' E 003°04'1818.7
2015-Jan-24 14:33N 41°56' E 003°19'2820.1
2015-Jan-24 13:10N 42°24' E 003°25'1819.7
2015-Jan-24 12:16N 42°41' E 003°27'2117.7
2015-Jan-24 11:05N 42°47' E 003°55'1018.6
2015-Jan-24 10:33N 42°49' E 004°08'2118.8
2015-Jan-24 09:25N 42°50' E 004°37'2318.8
2015-Jan-24 08:11N 42°53' E 005°08'5319.6
2015-Jan-24 05:28N 42°56' E 006°21'1920.5
2015-Jan-24 04:34N 43°04' E 006°44'2120.7
2015-Jan-24 03:34N 43°17' E 007°07'2120.6
2015-Jan-24 02:33N 43°30' E 007°29'4321.0
2015-Jan-24 00:31N 43°55' E 008°16'2020.7
2015-Jan-23 23:33N 44°13' E 008°30'6 6.0
2015-Jan-23 22:33N 44°19' E 008°30'0 0.0
2015-Jan-23 21:33N 44°19' E 008°30'0 0.0
2015-Jan-23 20:33N 44°19' E 008°30'0 0.0
2015-Jan-23 19:33N 44°19' E 008°30'0 0.0
2015-Jan-23 18:33N 44°19' E 008°30'6 5.6
2015-Jan-23 17:34N 44°13' E 008°31'2019.9
2015-Jan-23 16:33N 43°56' E 008°16'2519.3
2015-Jan-23 15:17N 43°41' E 007°49'1419.9
2015-Jan-23 14:34N 43°33' E 007°33'2020.2
2015-Jan-23 13:33N 43°20' E 007°11'2019.7
2015-Jan-23 12:34N 43°08' E 006°49'2019.6
2015-Jan-23 11:34N 42°57' E 006°28'5819.3
2015-Jan-23 08:34N 42°44' E 005°11'2019.4
2015-Jan-23 07:33N 42°41' E 004°44'130 8.4
2015-Jan-22 16:10N 41°22' E 002°27'1518.3
2015-Jan-22 15:23N 41°29' E 002°44'1518.2
2015-Jan-22 14:33N 41°36' E 003°01'2018.7
2015-Jan-22 13:29N 41°50' E 003°21'1819.3
2015-Jan-22 12:33N 42°03' E 003°38'1919.2
2015-Jan-22 11:33N 42°13' E 003°59'2219.7
2015-Jan-22 10:26N 42°21' E 004°28'1719.1
2015-Jan-22 09:31N 42°27' E 004°50'1919.2
2015-Jan-22 08:31N 42°33' E 005°15'5919.9
2015-Jan-22 05:33N 42°55' E 006°29'2019.8
2015-Jan-22 04:33N 43°06' E 006°51'1919.4
2015-Jan-22 03:33N 43°18' E 007°12'1919.2
2015-Jan-22 02:33N 43°30' E 007°33'4619.5
2015-Jan-22 00:11N 44°01' E 008°20'1319.9
2015-Jan-21 23:33N 44°11' E 008°30'810.5
2015-Jan-21 22:50N 44°19' E 008°30'0 0.0
2015-Jan-21 22:46N 44°19' E 008°30'0 0.0
2015-Jan-21 22:33N 44°19' E 008°30'0 0.0
2015-Jan-21 21:33N 44°19' E 008°30'0 0.0
2015-Jan-21 20:33N 44°19' E 008°30'0 0.0
2015-Jan-21 19:29N 44°19' E 008°30'0 0.0
2015-Jan-21 18:33N 44°19' E 008°30'1 1.0
2015-Jan-21 17:33N 44°18' E 008°31'2719.3
2015-Jan-21 16:08N 43°54' E 008°14'3319.9
2015-Jan-21 14:29N 43°33' E 007°38'1920.0
2015-Jan-21 13:33N 43°22' E 007°18'2020.0
2015-Jan-21 12:33N 43°10' E 006°56'2019.6
2015-Jan-21 11:33N 42°58' E 006°34'6319.9
2015-Jan-21 08:22N 42°38' E 005°12'1920.5
2015-Jan-21 07:28N 42°34' E 004°48'2219.4
2015-Jan-21 06:18N 42°30' E 004°18'4925.2
2015-Jan-21 04:22N 41°56' E 003°31'70 6.3
2015-Jan-20 17:10N 41°19' E 002°10'6 9.1
2015-Jan-20 16:33N 41°18' E 002°17'1717.0
2015-Jan-20 15:33N 41°26' E 002°37'2119.0
2015-Jan-20 14:25N 41°37' E 003°02'1618.1
2015-Jan-20 13:31N 41°47' E 003°19'2019.9
2015-Jan-20 12:30N 42°01' E 003°38'1818.4
2015-Jan-20 11:32N 42°11' E 003°59'2419.4
2015-Jan-20 10:18N 42°21' E 004°28'1419.0
2015-Jan-20 09:33N 42°26' E 004°46'7819.4
2015-Jan-20 05:33N 42°53' E 006°25'2019.8
2015-Jan-20 04:34N 43°03' E 006°49'2020.1
2015-Jan-20 03:33N 43°15' E 007°10'2019.9
2015-Jan-20 02:33N 43°28' E 007°31'4719.7
2015-Jan-20 00:11N 43°59' E 008°20'1220.1
2015-Jan-19 23:33N 44°10' E 008°29'9 8.9
2015-Jan-19 22:33N 44°19' E 008°30'0 0.0
2015-Jan-19 21:33N 44°19' E 008°30'0 0.0
2015-Jan-19 20:33N 44°19' E 008°30'0 0.0
2015-Jan-19 19:33N 44°19' E 008°30'0 0.0
2015-Jan-19 18:33N 44°19' E 008°30'0 0.0
2015-Jan-19 17:33N 44°19' E 008°30'0 0.0
2015-Jan-19 16:33N 44°19' E 008°30'0 0.0
2015-Jan-19 15:33N 44°19' E 008°30'0 0.0
2015-Jan-19 14:33N 44°19' E 008°30'0 0.2
2015-Jan-19 13:33N 44°19' E 008°30'0 0.0
2015-Jan-19 12:33N 44°19' E 008°30'0 0.0
2015-Jan-19 11:33N 44°19' E 008°30'0 0.0
2015-Jan-19 10:33N 44°19' E 008°30'0 0.0
2015-Jan-19 09:33N 44°19' E 008°30'0 0.0
2015-Jan-19 08:33N 44°19' E 008°30'0 0.0
2015-Jan-19 07:33N 44°19' E 008°30'0 0.0
2015-Jan-19 06:33N 44°19' E 008°30'0 0.0
2015-Jan-19 05:33N 44°19' E 008°30'0 0.0
2015-Jan-19 04:33N 44°19' E 008°30'0 0.0
2015-Jan-19 03:33N 44°19' E 008°30'0 0.0
2015-Jan-19 02:33N 44°19' E 008°30'0 0.0
2015-Jan-19 01:33N 44°19' E 008°30'0 0.0
2015-Jan-19 00:33N 44°19' E 008°30'0 0.0
2015-Jan-18 23:33N 44°19' E 008°30'0 0.0
2015-Jan-18 22:33N 44°19' E 008°30'0 0.0
2015-Jan-18 21:33N 44°19' E 008°30'0 0.2
2015-Jan-18 20:33N 44°19' E 008°30'0 0.0
2015-Jan-18 19:33N 44°19' E 008°30'0 0.0
2015-Jan-18 18:33N 44°19' E 008°30'0 0.0
2015-Jan-18 17:33N 44°19' E 008°30'1512.5
2015-Jan-18 16:20N 44°04' E 008°25'5319.1
2015-Jan-18 13:33N 43°27' E 007°31'2020.0
2015-Jan-18 12:33N 43°15' E 007°10'2019.6
2015-Jan-18 11:34N 43°03' E 006°48'22914.1
2015-Jan-17 19:19N 41°22' E 002°11'0 0.1
2015-Jan-17 18:21N 41°22' E 002°11'5 5.8
2015-Jan-17 17:33N 41°17' E 002°12'  

Dump ship's entire track history